sensor_id;sensor_type;location;lat;lon;timestamp;pressure;altitude;pressure_sealevel;temperature;humidity
21273;BME280;36726;52.328;10.552;2023-05-08T00:02:08;101391.91;;;8.86;89.11
21273;BME280;36726;52.328;10.552;2023-05-08T00:04:35;101395.28;;;8.82;89.11
21273;BME280;36726;52.328;10.552;2023-05-08T00:07:01;101394.28;;;8.79;89.35
21273;BME280;36726;52.328;10.552;2023-05-08T00:09:28;101396.88;;;8.77;89.78
21273;BME280;36726;52.328;10.552;2023-05-08T00:11:54;101387.97;;;8.74;89.36
21273;BME280;36726;52.328;10.552;2023-05-08T00:14:21;101396.69;;;8.73;89.15
21273;BME280;36726;52.328;10.552;2023-05-08T00:16:47;101394.00;;;8.71;89.10
21273;BME280;36726;52.328;10.552;2023-05-08T00:19:14;101389.56;;;8.70;89.37
21273;BME280;36726;52.328;10.552;2023-05-08T00:21:40;101393.94;;;8.68;89.30
21273;BME280;36726;52.328;10.552;2023-05-08T00:24:07;101390.34;;;8.66;89.08
21273;BME280;36726;52.328;10.552;2023-05-08T00:26:33;101393.72;;;8.62;89.30
21273;BME280;36726;52.328;10.552;2023-05-08T00:29:00;101395.44;;;8.62;89.79
21273;BME280;36726;52.328;10.552;2023-05-08T00:31:27;101398.00;;;8.59;89.39
21273;BME280;36726;52.328;10.552;2023-05-08T00:33:53;101401.41;;;8.56;89.70
21273;BME280;36726;52.328;10.552;2023-05-08T00:36:20;101394.31;;;8.54;89.81
21273;BME280;36726;52.328;10.552;2023-05-08T00:38:46;101398.63;;;8.52;89.97
21273;BME280;36726;52.328;10.552;2023-05-08T00:41:13;101401.13;;;8.49;89.97
21273;BME280;36726;52.328;10.552;2023-05-08T00:43:39;101402.00;;;8.48;89.88
21273;BME280;36726;52.328;10.552;2023-05-08T00:46:06;101406.28;;;8.44;89.96
21273;BME280;36726;52.328;10.552;2023-05-08T00:48:35;101410.59;;;8.42;90.26
21273;BME280;36726;52.328;10.552;2023-05-08T00:51:05;101399.09;;;8.40;90.71
21273;BME280;36726;52.328;10.552;2023-05-08T00:53:36;101401.63;;;8.37;89.99
21273;BME280;36726;52.328;10.552;2023-05-08T00:56:04;101408.53;;;8.33;90.77
21273;BME280;36726;52.328;10.552;2023-05-08T00:58:31;101408.50;;;8.32;90.73
21273;BME280;36726;52.328;10.552;2023-05-08T01:00:58;101405.72;;;8.29;90.37
21273;BME280;36726;52.328;10.552;2023-05-08T01:03:26;101400.41;;;8.27;90.80
21273;BME280;36726;52.328;10.552;2023-05-08T01:05:54;101395.91;;;8.25;90.82
21273;BME280;36726;52.328;10.552;2023-05-08T01:08:21;101396.69;;;8.22;90.96
21273;BME280;36726;52.328;10.552;2023-05-08T01:11:16;101396.59;;;8.19;90.82
21273;BME280;36726;52.328;10.552;2023-05-08T01:17:05;101402.53;;;8.14;91.43
21273;BME280;36726;52.328;10.552;2023-05-08T01:25:56;101403.94;;;8.04;91.75
21273;BME280;36726;52.328;10.552;2023-05-08T01:31:24;101401.06;;;7.98;92.07
21273;BME280;36726;52.328;10.552;2023-05-08T01:34:37;101400.97;;;7.95;92.24
21273;BME280;36726;52.328;10.552;2023-05-08T01:37:10;101401.75;;;7.93;92.14
21273;BME280;36726;52.328;10.552;2023-05-08T01:39:45;101398.16;;;7.91;92.51
21273;BME280;36726;52.328;10.552;2023-05-08T01:44:59;101392.69;;;7.85;92.91
21273;BME280;36726;52.328;10.552;2023-05-08T01:47:28;101392.63;;;7.83;92.53
21273;BME280;36726;52.328;10.552;2023-05-08T01:50:13;101387.22;;;7.80;93.03
21273;BME280;36726;52.328;10.552;2023-05-08T01:52:57;101386.28;;;7.78;92.97
21273;BME280;36726;52.328;10.552;2023-05-08T01:55:35;101382.69;;;7.76;93.06
21273;BME280;36726;52.328;10.552;2023-05-08T01:58:07;101380.00;;;7.75;93.19
21273;BME280;36726;52.328;10.552;2023-05-08T02:00:37;101380.84;;;7.74;93.31
21273;BME280;36726;52.328;10.552;2023-05-08T02:03:05;101373.72;;;7.71;93.49
21273;BME280;36726;52.328;10.552;2023-05-08T02:05:35;101388.66;;;7.71;93.47
21273;BME280;36726;52.328;10.552;2023-05-08T02:08:02;101384.16;;;7.68;93.50
21273;BME280;36726;52.328;10.552;2023-05-08T02:10:30;101390.19;;;7.66;93.40
21273;BME280;36726;52.328;10.552;2023-05-08T02:12:58;101391.00;;;7.63;93.51
21273;BME280;36726;52.328;10.552;2023-05-08T02:15:26;101390.09;;;7.63;93.59
21273;BME280;36726;52.328;10.552;2023-05-08T02:17:54;101398.84;;;7.62;93.63
21273;BME280;36726;52.328;10.552;2023-05-08T02:20:21;101391.75;;;7.61;93.83
21273;BME280;36726;52.328;10.552;2023-05-08T02:22:49;101392.66;;;7.61;93.86
21273;BME280;36726;52.328;10.552;2023-05-08T02:25:17;101393.56;;;7.62;94.17
21273;BME280;36726;52.328;10.552;2023-05-08T02:27:46;101391.00;;;7.63;93.94
21273;BME280;36726;52.328;10.552;2023-05-08T02:30:16;101395.34;;;7.63;94.01
21273;BME280;36726;52.328;10.552;2023-05-08T02:32:44;101395.28;;;7.61;94.02
21273;BME280;36726;52.328;10.552;2023-05-08T02:35:14;101394.38;;;7.61;94.18
21273;BME280;36726;52.328;10.552;2023-05-08T02:37:48;101394.34;;;7.59;93.95
21273;BME280;36726;52.328;10.552;2023-05-08T02:40:18;101394.28;;;7.58;93.99
21273;BME280;36726;52.328;10.552;2023-05-08T02:42:46;101386.34;;;7.56;93.94
21273;BME280;36726;52.328;10.552;2023-05-08T02:45:12;101388.97;;;7.56;93.79
21273;BME280;36726;52.328;10.552;2023-05-08T02:47:54;101386.19;;;7.53;93.92
21273;BME280;36726;52.328;10.552;2023-05-08T02:50:33;101386.16;;;7.52;94.01
21273;BME280;36726;52.328;10.552;2023-05-08T02:53:05;101386.03;;;7.49;94.08
21273;BME280;36726;52.328;10.552;2023-05-08T02:55:47;101387.72;;;7.47;93.73
21273;BME280;36726;52.328;10.552;2023-05-08T03:01:03;101398.13;;;7.44;94.09
21273;BME280;36726;52.328;10.552;2023-05-08T03:03:44;101384.03;;;7.42;94.01
21273;BME280;36726;52.328;10.552;2023-05-08T03:06:20;101378.69;;;7.40;94.18
21273;BME280;36726;52.328;10.552;2023-05-08T03:08:50;101378.63;;;7.38;94.36
21273;BME280;36726;52.328;10.552;2023-05-08T03:11:21;101381.19;;;7.37;94.21
21273;BME280;36726;52.328;10.552;2023-05-08T03:13:54;101375.88;;;7.35;94.22
21273;BME280;36726;52.328;10.552;2023-05-08T03:16:26;101374.97;;;7.35;94.12
21273;BME280;36726;52.328;10.552;2023-05-08T03:18:59;101378.50;;;7.35;94.33
21273;BME280;36726;52.328;10.552;2023-05-08T03:21:29;101374.91;;;7.33;93.77
21273;BME280;36726;52.328;10.552;2023-05-08T03:24:00;101377.53;;;7.33;94.22
21273;BME280;36726;52.328;10.552;2023-05-08T03:26:28;101375.78;;;7.32;94.28
21273;BME280;36726;52.328;10.552;2023-05-08T03:28:55;101378.34;;;7.31;94.26
21273;BME280;36726;52.328;10.552;2023-05-08T03:31:30;101373.00;;;7.29;94.24
21273;BME280;36726;52.328;10.552;2023-05-08T03:33:57;101377.44;;;7.30;94.26
21273;BME280;36726;52.328;10.552;2023-05-08T03:36:25;101381.84;;;7.31;94.24
21273;BME280;36726;52.328;10.552;2023-05-08T03:38:53;101373.13;;;7.32;94.16
21273;BME280;36726;52.328;10.552;2023-05-08T03:41:20;101375.78;;;7.32;94.34
21273;BME280;36726;52.328;10.552;2023-05-08T03:43:47;101374.91;;;7.33;93.93
21273;BME280;36726;52.328;10.552;2023-05-08T03:46:15;101376.72;;;7.34;94.24
21273;BME280;36726;52.328;10.552;2023-05-08T03:48:43;101377.59;;;7.35;93.93
21273;BME280;36726;52.328;10.552;2023-05-08T03:51:12;101374.97;;;7.35;94.05
21273;BME280;36726;52.328;10.552;2023-05-08T03:53:39;101372.47;;;7.38;94.23
21273;BME280;36726;52.328;10.552;2023-05-08T03:56:06;101379.56;;;7.41;93.90
21273;BME280;36726;52.328;10.552;2023-05-08T03:58:40;101377.91;;;7.43;93.92
21273;BME280;36726;52.328;10.552;2023-05-08T04:03:57;101372.88;;;7.49;93.47
21273;BME280;36726;52.328;10.552;2023-05-08T04:06:36;101372.94;;;7.50;93.26
21273;BME280;36726;52.328;10.552;2023-05-08T04:09:50;101375.72;;;7.55;93.25
21273;BME280;36726;52.328;10.552;2023-05-08T04:12:25;101379.31;;;7.57;92.98
21273;BME280;36726;52.328;10.552;2023-05-08T04:15:03;101378.59;;;7.61;92.73
21273;BME280;36726;52.328;10.552;2023-05-08T04:17:42;101383.13;;;7.65;92.43
21273;BME280;36726;52.328;10.552;2023-05-08T04:20:15;101370.06;;;7.68;92.47
21273;BME280;36726;52.328;10.552;2023-05-08T04:22:44;101379.03;;;7.73;92.13
21273;BME280;36726;52.328;10.552;2023-05-08T04:25:14;101376.59;;;7.77;92.20
21273;BME280;36726;52.328;10.552;2023-05-08T04:27:43;101372.31;;;7.81;91.41
21273;BME280;36726;52.328;10.552;2023-05-08T04:30:11;101368.06;;;7.84;91.55
21273;BME280;36726;52.328;10.552;2023-05-08T04:32:38;101374.34;;;7.88;91.22
21273;BME280;36726;52.328;10.552;2023-05-08T04:35:10;101375.34;;;7.91;90.57
21273;BME280;36726;52.328;10.552;2023-05-08T04:37:40;101378.94;;;7.93;91.00
21273;BME280;36726;52.328;10.552;2023-05-08T04:40:08;101380.00;;;7.98;91.13
21273;BME280;36726;52.328;10.552;2023-05-08T04:42:36;101375.72;;;8.02;90.97
21273;BME280;36726;52.328;10.552;2023-05-08T04:45:05;101377.53;;;8.03;90.38
21273;BME280;36726;52.328;10.552;2023-05-08T04:47:32;101375.91;;;8.06;89.83
21273;BME280;36726;52.328;10.552;2023-05-08T04:50:00;101377.72;;;8.09;89.78
21273;BME280;36726;52.328;10.552;2023-05-08T04:52:29;101386.59;;;8.11;89.92
21273;BME280;36726;52.328;10.552;2023-05-08T04:54:55;101386.72;;;8.14;89.34
21273;BME280;36726;52.328;10.552;2023-05-08T04:57:22;101384.19;;;8.17;89.26
21273;BME280;36726;52.328;10.552;2023-05-08T04:59:49;101388.72;;;8.21;89.02
21273;BME280;36726;52.328;10.552;2023-05-08T05:02:16;101384.50;;;8.24;89.25
21273;BME280;36726;52.328;10.552;2023-05-08T05:04:43;101385.50;;;8.28;88.56
21273;BME280;36726;52.328;10.552;2023-05-08T05:07:10;101389.19;;;8.33;89.02
21273;BME280;36726;52.328;10.552;2023-05-08T05:09:37;101391.91;;;8.36;88.72
21273;BME280;36726;52.328;10.552;2023-05-08T05:12:05;101396.41;;;8.38;88.30
21273;BME280;36726;52.328;10.552;2023-05-08T05:14:32;101394.72;;;8.41;88.58
21273;BME280;36726;52.328;10.552;2023-05-08T05:16:59;101399.25;;;8.45;88.38
21273;BME280;36726;52.328;10.552;2023-05-08T05:19:25;101399.44;;;8.51;89.02
21273;BME280;36726;52.328;10.552;2023-05-08T05:21:52;101395.13;;;8.53;87.96
21273;BME280;36726;52.328;10.552;2023-05-08T05:24:19;101397.00;;;8.55;87.66
21273;BME280;36726;52.328;10.552;2023-05-08T05:26:46;101402.31;;;8.57;87.89
21273;BME280;36726;52.328;10.552;2023-05-08T05:29:14;101405.09;;;8.61;87.27
21273;BME280;36726;52.328;10.552;2023-05-08T05:31:41;101413.13;;;8.64;87.55
21273;BME280;36726;52.328;10.552;2023-05-08T05:34:08;101408.84;;;8.68;87.55
21273;BME280;36726;52.328;10.552;2023-05-08T05:36:34;101416.03;;;8.72;87.40
21273;BME280;36726;52.328;10.552;2023-05-08T05:39:01;101417.03;;;8.75;87.71
21273;BME280;36726;52.328;10.552;2023-05-08T05:41:29;101424.25;;;8.81;87.20
21273;BME280;36726;52.328;10.552;2023-05-08T05:43:55;101420.00;;;8.86;87.35
21273;BME280;36726;52.328;10.552;2023-05-08T05:46:22;101416.69;;;8.91;87.43
21273;BME280;36726;52.328;10.552;2023-05-08T05:48:53;101413.34;;;8.97;86.65
21273;BME280;36726;52.328;10.552;2023-05-08T05:51:20;101418.72;;;9.00;87.02
21273;BME280;36726;52.328;10.552;2023-05-08T05:53:46;101413.47;;;9.01;87.08
21273;BME280;36726;52.328;10.552;2023-05-08T05:56:13;101416.25;;;9.04;87.12
21273;BME280;36726;52.328;10.552;2023-05-08T05:58:40;101406.72;;;9.09;86.03
21273;BME280;36726;52.328;10.552;2023-05-08T06:01:10;101413.03;;;9.14;86.14
21273;BME280;36726;52.328;10.552;2023-05-08T06:03:37;101413.13;;;9.17;85.72
21273;BME280;36726;52.328;10.552;2023-05-08T06:06:04;101408.00;;;9.22;86.69
21273;BME280;36726;52.328;10.552;2023-05-08T06:08:31;101408.13;;;9.26;86.09
21273;BME280;36726;52.328;10.552;2023-05-08T06:10:57;101396.81;;;9.30;85.70
21273;BME280;36726;52.328;10.552;2023-05-08T06:13:24;101397.84;;;9.35;86.12
21273;BME280;36726;52.328;10.552;2023-05-08T06:15:53;101396.25;;;9.40;85.41
21273;BME280;36726;52.328;10.552;2023-05-08T06:18:24;101396.44;;;9.47;85.18
21273;BME280;36726;52.328;10.552;2023-05-08T06:20:56;101402.88;;;9.55;85.19
21273;BME280;36726;52.328;10.552;2023-05-08T06:23:23;101412.97;;;9.99;92.68
21273;BME280;36726;52.328;10.552;2023-05-08T06:25:50;101406.28;;;10.75;91.27
21273;BME280;36726;52.328;10.552;2023-05-08T06:28:17;101411.00;;;11.63;85.43
21273;BME280;36726;52.328;10.552;2023-05-08T06:30:44;101400.03;;;12.29;82.71
21273;BME280;36726;52.328;10.552;2023-05-08T06:33:11;101400.84;;;12.73;76.73
21273;BME280;36726;52.328;10.552;2023-05-08T06:35:38;101399.75;;;13.11;71.76
21273;BME280;36726;52.328;10.552;2023-05-08T06:38:05;101409.06;;;13.40;72.87
21273;BME280;36726;52.328;10.552;2023-05-08T06:40:31;101407.16;;;13.30;70.44
21273;BME280;36726;52.328;10.552;2023-05-08T06:42:58;101410.38;;;13.11;69.79
21273;BME280;36726;52.328;10.552;2023-05-08T06:45:24;101411.63;;;12.82;69.16
21273;BME280;36726;52.328;10.552;2023-05-08T06:47:51;101414.78;;;12.60;70.10
21273;BME280;36726;52.328;10.552;2023-05-08T06:50:18;101421.41;;;12.37;70.18
21273;BME280;36726;52.328;10.552;2023-05-08T06:52:44;101408.69;;;12.18;70.40
21273;BME280;36726;52.328;10.552;2023-05-08T06:55:11;101414.53;;;12.02;70.80
21273;BME280;36726;52.328;10.552;2023-05-08T06:57:38;101408.06;;;11.88;71.35
21273;BME280;36726;52.328;10.552;2023-05-08T07:00:05;101420.19;;;11.77;72.16
21273;BME280;36726;52.328;10.552;2023-05-08T07:02:31;101407.69;;;11.70;72.79
21273;BME280;36726;52.328;10.552;2023-05-08T07:04:58;101406.56;;;11.62;72.78
21273;BME280;36726;52.328;10.552;2023-05-08T07:07:25;101416.22;;;11.58;73.66
21273;BME280;36726;52.328;10.552;2023-05-08T07:09:52;101406.41;;;11.54;73.46
21273;BME280;36726;52.328;10.552;2023-05-08T07:12:19;101414.31;;;11.52;73.85
21273;BME280;36726;52.328;10.552;2023-05-08T07:14:45;101419.63;;;11.52;73.87
21273;BME280;36726;52.328;10.552;2023-05-08T07:17:13;101420.44;;;11.50;74.04
21273;BME280;36726;52.328;10.552;2023-05-08T07:19:39;101423.16;;;11.52;74.51
21273;BME280;36726;52.328;10.552;2023-05-08T07:22:06;101427.63;;;11.56;74.70
21273;BME280;36726;52.328;10.552;2023-05-08T07:24:33;101425.06;;;11.59;74.99
21273;BME280;36726;52.328;10.552;2023-05-08T07:27:00;101429.53;;;11.61;75.18
21273;BME280;36726;52.328;10.552;2023-05-08T07:29:26;101420.84;;;11.67;75.52
21273;BME280;36726;52.328;10.552;2023-05-08T07:31:53;101427.19;;;11.73;74.94
21273;BME280;36726;52.328;10.552;2023-05-08T07:34:20;101424.63;;;11.78;74.99
21273;BME280;36726;52.328;10.552;2023-05-08T07:36:46;101434.50;;;11.85;73.89
21273;BME280;36726;52.328;10.552;2023-05-08T07:39:13;101433.72;;;11.89;73.74
21273;BME280;36726;52.328;10.552;2023-05-08T07:41:39;101436.50;;;11.95;73.28
21273;BME280;36726;52.328;10.552;2023-05-08T07:44:06;101430.34;;;11.97;73.14
21273;BME280;36726;52.328;10.552;2023-05-08T07:46:33;101426.09;;;12.04;73.11
21273;BME280;36726;52.328;10.552;2023-05-08T07:49:00;101433.22;;;12.08;72.15
21273;BME280;36726;52.328;10.552;2023-05-08T07:51:26;101429.75;;;12.12;72.37
21273;BME280;36726;52.328;10.552;2023-05-08T07:53:53;101433.47;;;12.20;71.92
21273;BME280;36726;52.328;10.552;2023-05-08T07:56:20;101436.22;;;12.26;71.56
21273;BME280;36726;52.328;10.552;2023-05-08T07:58:50;101434.63;;;12.34;71.52
21273;BME280;36726;52.328;10.552;2023-05-08T08:01:16;101431.22;;;12.39;71.92
21273;BME280;36726;52.328;10.552;2023-05-08T08:03:44;101431.38;;;12.47;71.99
21273;BME280;36726;52.328;10.552;2023-05-08T08:06:12;101427.03;;;12.52;70.94
21273;BME280;36726;52.328;10.552;2023-05-08T08:08:38;101434.19;;;12.56;69.89
21273;BME280;36726;52.328;10.552;2023-05-08T08:11:05;101420.97;;;12.61;70.51
21273;BME280;36726;52.328;10.552;2023-05-08T08:13:32;101423.78;;;12.68;71.04
21273;BME280;36726;52.328;10.552;2023-05-08T08:15:59;101418.59;;;12.74;70.22
21273;BME280;36726;52.328;10.552;2023-05-08T08:18:26;101427.56;;;12.82;70.89
21273;BME280;36726;52.328;10.552;2023-05-08T08:20:53;101428.59;;;12.89;69.96
21273;BME280;36726;52.328;10.552;2023-05-08T08:23:20;101429.53;;;12.92;69.85
21273;BME280;36726;52.328;10.552;2023-05-08T08:25:47;101433.16;;;12.97;68.26
21273;BME280;36726;52.328;10.552;2023-05-08T08:28:13;101434.16;;;13.02;68.81
21273;BME280;36726;52.328;10.552;2023-05-08T08:30:40;101423.63;;;13.07;68.31
21273;BME280;36726;52.328;10.552;2023-05-08T08:33:06;101432.53;;;13.10;68.42
21273;BME280;36726;52.328;10.552;2023-05-08T08:35:33;101433.47;;;13.15;67.73
21273;BME280;36726;52.328;10.552;2023-05-08T08:38:00;101432.66;;;13.19;68.19
21273;BME280;36726;52.328;10.552;2023-05-08T08:40:26;101436.28;;;13.24;68.10
21273;BME280;36726;52.328;10.552;2023-05-08T08:42:54;101426.63;;;13.29;66.64
21273;BME280;36726;52.328;10.552;2023-05-08T08:45:20;101424.03;;;13.34;66.73
21273;BME280;36726;52.328;10.552;2023-05-08T08:47:50;101432.06;;;13.38;66.82
21273;BME280;36726;52.328;10.552;2023-05-08T08:50:18;101424.19;;;13.44;66.78
21273;BME280;36726;52.328;10.552;2023-05-08T08:55:25;101417.28;;;13.57;64.09
21273;BME280;36726;52.328;10.552;2023-05-08T09:00:29;101413.97;;;13.72;63.39
21273;BME280;36726;52.328;10.552;2023-05-08T09:02:57;101424.69;;;13.79;64.60
21273;BME280;36726;52.328;10.552;2023-05-08T09:05:24;101418.53;;;13.85;64.17
21273;BME280;36726;52.328;10.552;2023-05-08T09:07:54;101415.13;;;13.92;64.38
21273;BME280;36726;52.328;10.552;2023-05-08T09:10:23;101427.56;;;13.97;65.01
21273;BME280;36726;52.328;10.552;2023-05-08T09:12:50;101417.03;;;14.05;65.74
21273;BME280;36726;52.328;10.552;2023-05-08T09:15:17;101430.50;;;14.18;65.46
21273;BME280;36726;52.328;10.552;2023-05-08T09:17:43;101426.28;;;14.34;63.91
21273;BME280;36726;52.328;10.552;2023-05-08T09:20:13;101430.88;;;14.47;63.28
21273;BME280;36726;52.328;10.552;2023-05-08T09:22:41;101426.50;;;14.55;63.51
21273;BME280;36726;52.328;10.552;2023-05-08T09:25:08;101431.91;;;14.64;62.21
21273;BME280;36726;52.328;10.552;2023-05-08T09:27:35;101429.34;;;14.72;61.42
21273;BME280;36726;52.328;10.552;2023-05-08T09:32:35;101428.59;;;14.86;61.84
21273;BME280;36726;52.328;10.552;2023-05-08T09:35:02;101428.63;;;14.89;61.47
21273;BME280;36726;52.328;10.552;2023-05-08T09:37:29;101433.97;;;14.92;61.67
21273;BME280;36726;52.328;10.552;2023-05-08T09:40:16;101433.13;;;14.96;61.42
21273;BME280;36726;52.328;10.552;2023-05-08T09:42:43;101434.06;;;15.01;61.80
21273;BME280;36726;52.328;10.552;2023-05-08T09:45:10;101430.56;;;15.05;62.33
21273;BME280;36726;52.328;10.552;2023-05-08T09:47:37;101429.66;;;15.08;61.68
21273;BME280;36726;52.328;10.552;2023-05-08T09:50:07;101434.16;;;15.13;61.23
21273;BME280;36726;52.328;10.552;2023-05-08T09:52:35;101426.22;;;15.19;59.00
21273;BME280;36726;52.328;10.552;2023-05-08T09:55:07;101418.25;;;15.22;59.36
21273;BME280;36726;52.328;10.552;2023-05-08T09:57:36;101426.28;;;15.28;58.75
21273;BME280;36726;52.328;10.552;2023-05-08T10:00:11;101432.53;;;15.30;58.52
21273;BME280;36726;52.328;10.552;2023-05-08T10:02:40;101426.31;;;15.33;58.83
21273;BME280;36726;52.328;10.552;2023-05-08T10:07:48;101425.44;;;15.35;58.92
21273;BME280;36726;52.328;10.552;2023-05-08T10:10:28;101421.03;;;15.39;58.04
21273;BME280;36726;52.328;10.552;2023-05-08T10:12:57;101417.53;;;15.44;59.86
21273;BME280;36726;52.328;10.552;2023-05-08T10:15:27;101408.69;;;15.53;59.13
21273;BME280;36726;52.328;10.552;2023-05-08T10:18:05;101405.16;;;15.54;59.56
21273;BME280;36726;52.328;10.552;2023-05-08T10:20:34;101404.28;;;15.53;59.00
21273;BME280;36726;52.328;10.552;2023-05-08T10:23:02;101398.94;;;15.56;59.96
21273;BME280;36726;52.328;10.552;2023-05-08T10:25:33;101396.31;;;15.61;59.21
21273;BME280;36726;52.328;10.552;2023-05-08T10:30:37;101377.66;;;15.66;59.35
21273;BME280;36726;52.328;10.552;2023-05-08T10:33:08;101383.91;;;15.71;59.25
21273;BME280;36726;52.328;10.552;2023-05-08T10:35:38;101382.16;;;15.76;59.08
21273;BME280;36726;52.328;10.552;2023-05-08T10:38:07;101390.19;;;15.79;58.59
21273;BME280;36726;52.328;10.552;2023-05-08T10:40:34;101390.19;;;15.82;58.84
21273;BME280;36726;52.328;10.552;2023-05-08T10:43:02;101379.53;;;15.85;59.22
21273;BME280;36726;52.328;10.552;2023-05-08T10:45:32;101383.97;;;15.89;58.85
21273;BME280;36726;52.328;10.552;2023-05-08T10:48:20;101391.13;;;15.94;59.53
21273;BME280;36726;52.328;10.552;2023-05-08T10:51:16;101384.91;;;15.98;58.99
21273;BME280;36726;52.328;10.552;2023-05-08T10:53:59;101388.53;;;16.05;58.79
21273;BME280;36726;52.328;10.552;2023-05-08T10:56:32;101379.63;;;16.09;58.28
21273;BME280;36726;52.328;10.552;2023-05-08T10:58:58;101375.22;;;16.14;59.00
21273;BME280;36726;52.328;10.552;2023-05-08T11:01:25;101372.53;;;16.20;58.91
21273;BME280;36726;52.328;10.552;2023-05-08T11:03:52;101375.22;;;16.24;59.19
21273;BME280;36726;52.328;10.552;2023-05-08T11:06:45;101362.78;;;16.29;58.98
21273;BME280;36726;52.328;10.552;2023-05-08T11:09:20;101377.94;;;16.35;59.16
21273;BME280;36726;52.328;10.552;2023-05-08T11:12:07;101373.47;;;16.40;59.31
21273;BME280;36726;52.328;10.552;2023-05-08T11:14:41;101371.69;;;16.45;59.61
21273;BME280;36726;52.328;10.552;2023-05-08T11:17:09;101378.88;;;16.49;58.25
21273;BME280;36726;52.328;10.552;2023-05-08T11:19:37;101369.97;;;16.53;57.08
21273;BME280;36726;52.328;10.552;2023-05-08T11:24:38;101366.41;;;16.62;59.04
21273;BME280;36726;52.328;10.552;2023-05-08T11:27:05;101375.31;;;16.67;58.65
21273;BME280;36726;52.328;10.552;2023-05-08T11:29:32;101370.00;;;16.71;57.66
21273;BME280;36726;52.328;10.552;2023-05-08T11:31:59;101364.63;;;16.77;58.54
21273;BME280;36726;52.328;10.552;2023-05-08T11:37:16;101358.41;;;16.87;57.10
21273;BME280;36726;52.328;10.552;2023-05-08T11:39:43;101348.59;;;16.94;57.50
21273;BME280;36726;52.328;10.552;2023-05-08T11:45:13;101335.22;;;17.03;56.33
21273;BME280;36726;52.328;10.552;2023-05-08T11:47:41;101339.69;;;17.05;56.81
21273;BME280;36726;52.328;10.552;2023-05-08T11:50:10;101348.59;;;17.10;57.91
21273;BME280;36726;52.328;10.552;2023-05-08T11:52:39;101341.44;;;17.15;57.81
21273;BME280;36726;52.328;10.552;2023-05-08T11:55:06;101342.38;;;17.20;57.52
21273;BME280;36726;52.328;10.552;2023-05-08T11:57:33;101345.03;;;17.23;57.94
21273;BME280;36726;52.328;10.552;2023-05-08T12:00:05;101341.44;;;17.29;57.29
21273;BME280;36726;52.328;10.552;2023-05-08T12:02:38;101339.63;;;17.35;57.24
21273;BME280;36726;52.328;10.552;2023-05-08T12:05:07;101342.28;;;17.37;54.80
21273;BME280;36726;52.328;10.552;2023-05-08T12:07:47;101334.28;;;17.41;55.37
21273;BME280;36726;52.328;10.552;2023-05-08T12:10:14;101332.50;;;17.42;54.64
21273;BME280;36726;52.328;10.552;2023-05-08T12:12:42;101333.38;;;17.45;54.45
21273;BME280;36726;52.328;10.552;2023-05-08T12:15:13;101331.59;;;17.50;53.49
21273;BME280;36726;52.328;10.552;2023-05-08T12:17:41;101331.59;;;17.52;53.27
21273;BME280;36726;52.328;10.552;2023-05-08T12:20:17;101330.69;;;17.56;53.76
21273;BME280;36726;52.328;10.552;2023-05-08T12:22:51;101323.50;;;17.64;53.69
21273;BME280;36726;52.328;10.552;2023-05-08T12:25:18;101324.38;;;17.74;53.86
21273;BME280;36726;52.328;10.552;2023-05-08T12:27:45;101326.09;;;17.84;53.51
21273;BME280;36726;52.328;10.552;2023-05-08T12:30:13;101326.94;;;17.98;53.33
21273;BME280;36726;52.328;10.552;2023-05-08T12:32:41;101323.34;;;18.05;51.76
21273;BME280;36726;52.328;10.552;2023-05-08T12:35:10;101317.94;;;18.09;51.44
21273;BME280;36726;52.328;10.552;2023-05-08T12:37:36;101319.75;;;18.10;51.06
21273;BME280;36726;52.328;10.552;2023-05-08T12:40:04;101326.88;;;18.08;51.25
21273;BME280;36726;52.328;10.552;2023-05-08T12:42:47;101327.81;;;18.03;51.53
21273;BME280;36726;52.328;10.552;2023-05-08T12:45:21;101316.25;;;17.98;49.82
21273;BME280;36726;52.328;10.552;2023-05-08T12:47:49;101321.59;;;17.95;50.37
21273;BME280;36726;52.328;10.552;2023-05-08T12:50:18;101321.59;;;17.96;51.22
21273;BME280;36726;52.328;10.552;2023-05-08T12:52:47;101321.56;;;18.02;51.64
21273;BME280;36726;52.328;10.552;2023-05-08T12:55:27;101326.00;;;18.08;52.01
21273;BME280;36726;52.328;10.552;2023-05-08T12:58:12;101323.28;;;18.09;50.81
21273;BME280;36726;52.328;10.552;2023-05-08T13:00:46;101318.81;;;18.13;50.65
21273;BME280;36726;52.328;10.552;2023-05-08T13:03:24;101323.28;;;18.15;50.73
21273;BME280;36726;52.328;10.552;2023-05-08T13:05:56;101315.19;;;18.20;49.62
21273;BME280;36726;52.328;10.552;2023-05-08T13:08:36;101318.75;;;18.23;48.81
21273;BME280;36726;52.328;10.552;2023-05-08T13:11:07;101305.38;;;18.25;48.39
21273;BME280;36726;52.328;10.552;2023-05-08T13:13:35;101324.06;;;18.28;48.99
21273;BME280;36726;52.328;10.552;2023-05-08T13:16:04;101319.59;;;18.31;48.12
21273;BME280;36726;52.328;10.552;2023-05-08T13:18:32;101308.84;;;18.36;48.22
21273;BME280;36726;52.328;10.552;2023-05-08T13:21:01;101305.22;;;18.40;48.07
21273;BME280;36726;52.328;10.552;2023-05-08T13:23:29;101301.72;;;18.41;46.82
21273;BME280;36726;52.328;10.552;2023-05-08T13:25:56;101299.91;;;18.43;47.12
21273;BME280;36726;52.328;10.552;2023-05-08T13:28:22;101302.56;;;18.46;47.52
21273;BME280;36726;52.328;10.552;2023-05-08T13:30:50;101300.75;;;18.48;47.41
21273;BME280;36726;52.328;10.552;2023-05-08T13:33:17;101292.69;;;18.51;48.07
21273;BME280;36726;52.328;10.552;2023-05-08T13:35:43;101299.81;;;18.53;46.73
21273;BME280;36726;52.328;10.552;2023-05-08T13:38:10;101292.66;;;18.54;45.93
21273;BME280;36726;52.328;10.552;2023-05-08T13:40:36;101277.44;;;18.56;46.14